Time;durP1;ratioP1;P1;durP2;ratioP2;P2;SDS_P1;SDS_P2;PMS_P1;PMS_P2;Temp;Humidity;BMP_temperature;BMP_pressure;BME280_temperature;BME280_humidity;BME280_pressure;Samples;Min_cycle;Max_cycle;Signal;HPM_P1;HPM_P2
2022/09/04 00:02:04;;;;;;;6.15;5.38;;;24.60;1.00;;;;;;5038734;28;20037;-51
2022/09/04 00:04:33;;;;;;;7.93;5.30;;;24.60;1.00;;;;;;4998868;28;20129;-52
2022/09/04 00:06:59;;;;;;;6.53;5.78;;;24.60;1.00;;;;;;5035208;28;20121;-51
2022/09/04 00:09:48;;;;;;;8.05;6.40;;;24.60;1.00;;;;;;5035695;28;20121;-53
2022/09/04 00:12:16;;;;;;;6.15;5.53;;;24.50;1.00;;;;;;5038402;28;20071;-56
2022/09/04 00:14:52;;;;;;;7.25;6.13;;;24.50;1.00;;;;;;5041656;28;20026;-52
2022/09/04 00:17:21;;;;;;;8.95;6.18;;;24.50;1.00;;;;;;5035850;28;20043;-56
2022/09/04 00:20:11;;;;;;;7.20;6.03;;;24.40;1.00;;;;;;5034173;28;20063;-55
2022/09/04 00:22:52;;;;;;;11.32;6.45;;;24.40;1.00;;;;;;5032686;28;20025;-55
2022/09/04 00:25:24;;;;;;;9.90;7.07;;;24.40;1.00;;;;;;5033498;28;20037;-53
2022/09/04 00:28:00;;;;;;;9.70;4.90;;;24.40;1.00;;;;;;5027259;28;20034;-52
2022/09/04 00:30:26;;;;;;;8.00;6.00;;;24.40;1.00;;;;;;5026540;28;20475;-53
2022/09/04 00:33:16;;;;;;;7.07;5.40;;;24.40;1.00;;;;;;5031740;28;20026;-52
2022/09/04 00:35:54;;;;;;;5.50;5.03;;;24.30;1.00;;;;;;5034018;28;20024;-52
2022/09/04 00:38:39;;;;;;;6.68;5.40;;;24.30;1.00;;;;;;5023252;28;20030;-53
2022/09/04 00:41:33;;;;;;;6.53;5.07;;;24.30;1.00;;;;;;5033957;28;20021;-54
2022/09/04 00:44:17;;;;;;;5.82;4.93;;;24.30;1.00;;;;;;5034956;28;20419;-54
2022/09/04 00:47:08;;;;;;;6.55;5.88;;;24.30;1.00;;;;;;5033561;28;20029;-52
2022/09/04 00:50:00;;;;;;;6.35;5.28;;;24.30;1.00;;;;;;5032817;28;20021;-52
2022/09/04 00:52:42;;;;;;;7.50;5.25;;;24.30;1.00;;;;;;5019090;28;20041;-55
2022/09/04 00:55:30;;;;;;;5.47;4.88;;;24.30;1.00;;;;;;5032240;28;20029;-54
2022/09/04 00:58:29;;;;;;;7.15;5.25;;;24.20;1.00;;;;;;5037873;28;20025;-54
2022/09/04 01:00:57;;;;;;;5.03;4.60;;;24.30;1.00;;;;;;5021381;28;20060;-51
2022/09/04 01:03:45;;;;;;;7.20;4.80;;;24.20;1.00;;;;;;5032419;28;20060;-56
2022/09/04 01:06:47;;;;;;;5.35;4.85;;;24.20;1.00;;;;;;5022209;28;20037;-55
2022/09/04 01:09:30;;;;;;;6.20;5.60;;;24.20;1.00;;;;;;5028090;28;20033;-57
2022/09/04 01:12:41;;;;;;;6.88;5.60;;;24.20;1.00;;;;;;5032774;28;20084;-55
2022/09/04 01:15:31;;;;;;;9.02;5.60;;;24.10;1.00;;;;;;5029928;28;20486;-55
2022/09/04 01:18:10;;;;;;;6.30;5.28;;;24.10;1.00;;;;;;5019961;28;20095;-52
2022/09/04 01:20:50;;;;;;;4.97;4.55;;;24.10;1.00;;;;;;5032153;28;20025;-56
2022/09/04 01:23:16;;;;;;;4.82;4.28;;;24.10;1.00;;;;;;5031749;28;20349;-55
2022/09/04 01:25:57;;;;;;;6.15;4.30;;;24.20;1.00;;;;;;5035169;28;20079;-55
2022/09/04 01:29:00;;;;;;;6.53;5.25;;;24.10;1.00;;;;;;5032572;28;20044;-56
2022/09/04 01:35:14;;;;;;;7.25;5.93;;;24.20;1.00;;;;;;5028113;28;20068;-55
2022/09/04 01:38:01;;;;;;;7.15;6.43;;;24.20;1.00;;;;;;5027721;28;20026;-56
2022/09/04 01:40:41;;;;;;;7.35;6.75;;;24.20;1.00;;;;;;5032424;28;20075;-55
2022/09/04 01:43:11;;;;;;;8.05;6.90;;;24.20;1.00;;;;;;5031805;28;20016;-55
2022/09/04 01:46:15;;;;;;;9.07;8.13;;;24.10;1.00;;;;;;5021985;28;20120;-54
2022/09/04 01:48:55;;;;;;;15.52;9.00;;;24.10;1.00;;;;;;5034284;28;20033;-53
2022/09/04 01:51:26;;;;;;;8.65;7.78;;;24.00;1.00;;;;;;5036251;28;20046;-51
2022/09/04 01:54:09;;;;;;;9.90;8.48;;;24.10;1.00;;;;;;5031922;28;20071;-50
2022/09/04 01:56:53;;;;;;;8.20;7.50;;;24.10;1.00;;;;;;5032471;28;20090;-52
2022/09/04 01:59:30;;;;;;;8.65;7.80;;;24.20;1.00;;;;;;5025358;28;20036;-50
2022/09/04 02:02:29;;;;;;;9.68;8.13;;;24.10;1.00;;;;;;5034058;28;20021;-52
2022/09/04 02:05:06;;;;;;;7.20;6.60;;;24.20;1.00;;;;;;5025562;28;20073;-50
2022/09/04 02:07:48;;;;;;;8.63;7.47;;;24.20;1.00;;;;;;5032086;28;20071;-56
2022/09/04 02:10:28;;;;;;;8.70;7.28;;;24.20;1.00;;;;;;5037774;28;20374;-51
2022/09/04 02:13:19;;;;;;;12.27;7.72;;;24.20;1.00;;;;;;5032260;28;20061;-54
2022/09/04 02:16:05;;;;;;;8.23;7.18;;;24.20;1.00;;;;;;5025643;28;20142;-55
2022/09/04 02:18:31;;;;;;;8.60;7.80;;;24.20;1.00;;;;;;5029777;28;20745;-56
2022/09/04 02:21:19;;;;;;;8.88;8.10;;;24.20;1.00;;;;;;5029857;28;20422;-57
2022/09/04 02:23:57;;;;;;;8.73;7.88;;;24.20;1.00;;;;;;5030357;28;20033;-56
2022/09/04 02:26:29;;;;;;;8.77;7.78;;;24.10;1.00;;;;;;5030576;28;20022;-56
2022/09/04 02:29:16;;;;;;;9.23;8.32;;;24.20;1.00;;;;;;5031797;28;20025;-56
2022/09/04 02:31:53;;;;;;;10.82;8.95;;;24.10;1.00;;;;;;5047050;28;20119;-54
2022/09/04 02:34:37;;;;;;;10.32;9.43;;;24.20;1.00;;;;;;5037232;28;20029;-55
2022/09/04 02:37:21;;;;;;;11.35;10.32;;;24.10;1.00;;;;;;5034571;28;20102;-52
2022/09/04 02:40:10;;;;;;;14.02;12.15;;;24.00;1.00;;;;;;5042727;28;20484;-55
2022/09/04 02:42:55;;;;;;;13.48;12.18;;;24.10;1.00;;;;;;5018764;28;20036;-51
2022/09/04 02:45:33;;;;;;;13.63;12.32;;;24.00;1.00;;;;;;5031291;28;20041;-54
2022/09/04 02:48:33;;;;;;;13.02;11.75;;;24.00;1.00;;;;;;5020873;28;20567;-54
2022/09/04 02:51:12;;;;;;;12.57;11.27;;;24.00;1.00;;;;;;5036777;28;20081;-52
2022/09/04 02:53:56;;;;;;;12.60;11.27;;;24.00;1.00;;;;;;5031419;28;20395;-53
2022/09/04 02:56:39;;;;;;;12.77;11.40;;;24.00;1.00;;;;;;5019843;28;20022;-55
2022/09/04 02:59:46;;;;;;;13.85;12.55;;;24.00;1.00;;;;;;5030692;28;20071;-51
2022/09/04 03:02:33;;;;;;;13.90;12.52;;;23.90;1.00;;;;;;4990088;28;20065;-54
2022/09/04 03:04:59;;;;;;;13.75;11.75;;;23.90;1.00;;;;;;4982277;28;20030;-51
2022/09/04 03:07:35;;;;;;;13.18;11.95;;;23.90;1.00;;;;;;5020445;28;20053;-52
2022/09/04 03:10:03;;;;;;;13.55;12.25;;;23.80;1.00;;;;;;5034324;28;20033;-55
2022/09/04 03:12:50;;;;;;;13.10;11.77;;;23.80;1.00;;;;;;5031518;28;20415;-54
2022/09/04 03:15:47;;;;;;;12.60;11.38;;;23.80;1.00;;;;;;5035318;28;20026;-53
2022/09/04 03:25:43;;;;;;;13.20;11.85;;;23.70;1.00;;;;;;5016111;28;20080;-55
2022/09/04 03:28:43;;;;;;;13.43;11.68;;;23.70;1.00;;;;;;5032455;28;20383;-54
2022/09/04 03:31:20;;;;;;;11.32;10.20;;;23.60;1.00;;;;;;5020998;28;20115;-53
2022/09/04 03:34:07;;;;;;;12.95;11.75;;;23.60;1.00;;;;;;5034570;28;20037;-56
2022/09/04 03:36:58;;;;;;;12.80;11.60;;;23.60;1.00;;;;;;5043140;28;20029;-57
2022/09/04 03:39:52;;;;;;;12.57;11.48;;;23.60;1.00;;;;;;5035198;28;20125;-56
2022/09/04 03:42:39;;;;;;;12.18;10.93;;;23.60;1.00;;;;;;5030416;28;20030;-56
2022/09/04 03:45:23;;;;;;;12.25;11.05;;;23.60;1.00;;;;;;5035060;28;20383;-51
2022/09/04 03:47:51;;;;;;;13.02;11.68;;;23.50;1.00;;;;;;5042845;28;20164;-56
2022/09/04 03:51:02;;;;;;;11.80;10.70;;;23.50;1.00;;;;;;5033169;28;20566;-56
2022/09/04 03:54:02;;;;;;;11.93;10.75;;;23.50;1.00;;;;;;5027100;28;20045;-56
2022/09/04 03:57:05;;;;;;;11.65;10.65;;;23.50;1.00;;;;;;5032793;28;20510;-55
2022/09/04 04:00:07;;;;;;;10.77;9.77;;;23.40;1.00;;;;;;5034410;28;20539;-56
2022/09/04 04:02:38;;;;;;;11.05;10.05;;;23.40;1.00;;;;;;5036921;28;20060;-56
2022/09/04 04:05:38;;;;;;;12.60;11.30;;;23.40;1.00;;;;;;5034313;28;20098;-53
2022/09/04 04:08:42;;;;;;;12.80;11.25;;;23.40;1.00;;;;;;5042584;28;20520;-52
2022/09/04 04:11:26;;;;;;;11.95;10.80;;;23.40;1.00;;;;;;5024748;28;20040;-53
2022/09/04 04:14:24;;;;;;;12.50;11.20;;;23.40;1.00;;;;;;5038021;28;20021;-54
2022/09/04 04:17:14;;;;;;;13.52;10.75;;;23.40;1.00;;;;;;5034291;28;20091;-51
2022/09/04 04:20:04;;;;;;;9.80;8.90;;;23.30;1.00;;;;;;5044201;28;20176;-52
2022/09/04 04:22:45;;;;;;;11.57;9.63;;;23.30;1.00;;;;;;5033264;28;20084;-53
2022/09/04 04:25:41;;;;;;;10.43;9.52;;;23.40;1.00;;;;;;5043152;28;20025;-52
2022/09/04 04:28:18;;;;;;;12.82;10.43;;;23.30;1.00;;;;;;5034111;28;20056;-52
2022/09/04 04:30:52;;;;;;;9.85;8.88;;;23.30;1.00;;;;;;5039748;28;20431;-51
2022/09/04 04:33:31;;;;;;;9.07;8.07;;;23.30;1.00;;;;;;5032984;28;20072;-54
2022/09/04 04:36:16;;;;;;;9.18;8.30;;;23.30;1.00;;;;;;5034128;28;20078;-53
2022/09/04 04:38:53;;;;;;;7.75;7.05;;;23.20;1.00;;;;;;5032840;28;20018;-54
2022/09/04 04:42:04;;;;;;;8.85;7.97;;;23.20;1.00;;;;;;5034003;28;20111;-54
2022/09/04 05:02:23;;;;;;;7.60;6.65;;;23.20;1.00;;;;;;5004966;28;20156;-56
2022/09/04 05:05:10;;;;;;;8.05;7.30;;;23.20;1.00;;;;;;5033324;28;20032;-52
2022/09/04 05:07:47;;;;;;;7.68;6.75;;;23.20;1.00;;;;;;5036470;28;20076;-54
2022/09/04 05:10:30;;;;;;;9.95;8.98;;;23.20;1.00;;;;;;5033395;28;20064;-51
2022/09/04 05:13:23;;;;;;;11.73;10.75;;;23.20;1.00;;;;;;5034896;28;20340;-55
2022/09/04 05:16:03;;;;;;;11.40;10.27;;;23.20;1.00;;;;;;5033159;28;20036;-53
2022/09/04 05:18:35;;;;;;;11.00;9.90;;;23.20;1.00;;;;;;5036541;28;20025;-56
2022/09/04 05:21:08;;;;;;;8.20;7.40;;;23.10;1.00;;;;;;5033080;28;20541;-54
2022/09/04 05:24:23;;;;;;;8.57;7.43;;;23.10;1.00;;;;;;5037657;28;20029;-51
2022/09/04 05:26:59;;;;;;;8.45;6.63;;;23.20;1.00;;;;;;5026231;28;20280;-52
2022/09/04 05:29:50;;;;;;;10.13;9.10;;;23.20;1.00;;;;;;5036155;28;20063;-54
2022/09/04 05:32:46;;;;;;;11.02;10.07;;;23.20;1.00;;;;;;5035592;28;20107;-56
2022/09/04 05:35:42;;;;;;;10.48;9.55;;;23.20;1.00;;;;;;5029623;28;20467;-53
2022/09/04 05:38:10;;;;;;;11.98;10.98;;;23.20;1.00;;;;;;5043287;28;20127;-56
2022/09/04 05:40:51;;;;;;;9.63;8.82;;;23.20;1.00;;;;;;5032498;28;20026;-52
2022/09/04 05:43:20;;;;;;;9.52;8.73;;;23.20;1.00;;;;;;5031930;28;20178;-54
2022/09/04 05:45:51;;;;;;;9.13;8.18;;;23.20;1.00;;;;;;5031188;28;20122;-52
2022/09/04 05:48:47;;;;;;;10.02;8.80;;;23.10;1.00;;;;;;5032219;28;20060;-51
2022/09/04 05:51:21;;;;;;;10.98;8.77;;;23.10;1.00;;;;;;5019307;28;20038;-56
2022/09/04 05:53:52;;;;;;;10.52;9.00;;;23.00;1.00;;;;;;5028315;28;20125;-56
2022/09/04 05:56:29;;;;;;;9.13;8.43;;;23.00;1.00;;;;;;5030082;28;20035;-56
2022/09/04 06:02:32;;;;;;;14.77;10.20;;;23.00;1.00;;;;;;5022127;28;20128;-54
2022/09/04 06:05:22;;;;;;;12.23;9.73;;;23.20;1.00;;;;;;5032352;28;20052;-55
2022/09/04 06:08:07;;;;;;;10.50;9.27;;;23.20;1.00;;;;;;5042082;28;20044;-53
2022/09/04 06:10:54;;;;;;;11.55;10.45;;;23.20;1.00;;;;;;5024156;28;20036;-56
2022/09/04 06:13:34;;;;;;;11.45;10.43;;;23.20;1.00;;;;;;5035496;28;20032;-53
2022/09/04 06:16:38;;;;;;;12.77;11.48;;;23.30;1.00;;;;;;5032241;28;20440;-52
2022/09/04 06:19:12;;;;;;;12.10;10.90;;;23.30;1.00;;;;;;5032038;28;20506;-52
2022/09/04 06:22:02;;;;;;;14.43;13.30;;;23.30;1.00;;;;;;5031807;28;20171;-52
2022/09/04 06:24:40;;;;;;;14.98;13.30;;;23.30;1.00;;;;;;5021316;28;20489;-53
2022/09/04 06:27:47;;;;;;;13.88;12.68;;;23.30;1.00;;;;;;5029276;28;20041;-53
2022/09/04 06:30:15;;;;;;;12.90;11.68;;;23.30;1.00;;;;;;5024283;28;20021;-55
2022/09/04 06:32:59;;;;;;;13.10;11.80;;;23.40;1.00;;;;;;5020256;28;20111;-53
2022/09/04 06:35:25;;;;;;;13.93;12.45;;;23.40;1.00;;;;;;5040443;28;20021;-50
2022/09/04 06:37:51;;;;;;;12.50;11.38;;;23.40;1.00;;;;;;5023933;28;20430;-54
2022/09/04 06:40:34;;;;;;;14.00;11.65;;;23.40;1.00;;;;;;5032037;28;20037;-50
2022/09/04 06:43:05;;;;;;;12.95;11.70;;;23.40;1.00;;;;;;5022993;28;20044;-53
2022/09/04 06:46:17;;;;;;;15.05;13.48;;;23.40;1.00;;;;;;5031562;28;20104;-53
2022/09/04 06:48:52;;;;;;;15.57;14.02;;;23.40;1.00;;;;;;5036157;28;20045;-55
2022/09/04 06:51:41;;;;;;;13.90;12.48;;;23.40;1.00;;;;;;5029428;28;20045;-53
2022/09/04 06:54:46;;;;;;;14.40;13.10;;;23.50;1.00;;;;;;5037267;28;20146;-53
2022/09/04 06:57:27;;;;;;;13.70;12.43;;;23.50;1.00;;;;;;5033465;28;20072;-54
2022/09/04 07:00:06;;;;;;;13.55;12.27;;;23.40;1.00;;;;;;5042322;28;20021;-53
2022/09/04 07:02:43;;;;;;;14.75;13.30;;;23.40;1.00;;;;;;5030424;28;20491;-55
2022/09/04 07:05:20;;;;;;;14.15;12.77;;;23.50;1.00;;;;;;5031754;28;20029;-53
2022/09/04 07:08:02;;;;;;;14.77;13.45;;;23.50;1.00;;;;;;5030784;28;20030;-54
2022/09/04 07:10:41;;;;;;;13.40;12.10;;;23.50;1.00;;;;;;5031487;28;20034;-57
2022/09/04 07:13:28;;;;;;;16.73;15.27;;;23.70;1.00;;;;;;5041860;28;20061;-57
2022/09/04 07:16:21;;;;;;;20.10;17.75;;;23.70;1.00;;;;;;5035605;28;20034;-56
2022/09/04 07:19:06;;;;;;;17.35;15.80;;;23.70;1.00;;;;;;5030261;28;20026;-55
2022/09/04 07:21:53;;;;;;;17.88;16.20;;;23.70;1.00;;;;;;5035259;28;20053;-55
2022/09/04 07:24:28;;;;;;;17.95;16.25;;;23.80;1.00;;;;;;5026904;28;20094;-52
2022/09/04 07:27:35;;;;;;;19.88;18.15;;;23.70;1.00;;;;;;5028904;28;20025;-57
2022/09/04 07:30:10;;;;;;;17.15;15.60;;;23.80;1.00;;;;;;5035021;28;20487;-53
2022/09/04 07:32:50;;;;;;;18.02;16.30;;;23.80;1.00;;;;;;5034063;28;20387;-51
2022/09/04 07:35:38;;;;;;;18.00;16.30;;;23.80;1.00;;;;;;5035698;28;20047;-57
2022/09/04 07:38:41;;;;;;;18.92;17.05;;;23.90;1.00;;;;;;5041506;28;20020;-54
2022/09/04 07:41:16;;;;;;;17.85;16.25;;;23.90;1.00;;;;;;5040774;28;20041;-51
2022/09/04 07:43:45;;;;;;;26.88;24.27;;;23.90;1.00;;;;;;5034248;28;20032;-56
2022/09/04 07:46:12;;;;;;;21.98;19.85;;;23.90;1.00;;;;;;5033156;28;20034;-53
2022/09/04 07:48:56;;;;;;;20.10;18.35;;;24.00;1.00;;;;;;5045294;28;20313;-52
2022/09/04 07:51:28;;;;;;;16.65;15.05;;;24.00;1.00;;;;;;5037528;28;20060;-54
2022/09/04 07:54:10;;;;;;;18.80;16.77;;;24.10;1.00;;;;;;5037699;28;20040;-52
2022/09/04 07:57:04;;;;;;;17.27;15.70;;;24.10;1.00;;;;;;5033781;28;20097;-52
2022/09/04 07:59:49;;;;;;;16.63;14.90;;;24.00;1.00;;;;;;5034702;28;20029;-56
2022/09/04 08:02:23;;;;;;;14.90;13.38;;;24.10;1.00;;;;;;5043959;28;20048;-55
2022/09/04 08:05:00;;;;;;;;;;;24.10;1.00;;;;;;5035054;28;20029;-54
2022/09/04 08:07:48;;;;;;;18.05;16.25;;;24.10;1.00;;;;;;5033508;28;20274;-57
2022/09/04 08:10:23;;;;;;;17.17;15.50;;;24.20;1.00;;;;;;5020814;28;20025;-51
2022/09/04 08:13:02;;;;;;;17.15;15.35;;;24.30;1.00;;;;;;5032654;28;20072;-56
2022/09/04 08:15:42;;;;;;;16.30;14.95;;;24.30;1.00;;;;;;5040484;28;20032;-50
2022/09/04 08:18:14;;;;;;;20.48;15.73;;;24.40;1.00;;;;;;5033308;28;20029;-52
2022/09/04 08:20:58;;;;;;;16.38;14.80;;;24.40;1.00;;;;;;5032900;28;20079;-56
2022/09/04 08:23:23;;;;;;;15.75;14.40;;;24.50;1.00;;;;;;5032502;28;20096;-56
2022/09/04 08:26:13;;;;;;;18.17;16.55;;;24.50;1.00;;;;;;5033984;28;20036;-57
2022/09/04 08:29:16;;;;;;;22.17;20.10;;;24.50;1.00;;;;;;5034948;28;20116;-56
2022/09/04 08:32:04;;;;;;;20.90;18.98;;;24.50;1.00;;;;;;5028681;28;20120;-55
2022/09/04 08:34:51;;;;;;;20.63;18.60;;;24.60;1.00;;;;;;5033836;28;20026;-54
2022/09/04 08:37:34;;;;;;;19.42;17.55;;;24.60;1.00;;;;;;5034476;28;20041;-57
2022/09/04 08:40:38;;;;;;;19.73;17.58;;;24.70;1.00;;;;;;5035365;28;20095;-56
2022/09/04 08:43:34;;;;;;;19.50;17.80;;;24.70;1.00;;;;;;5033588;28;20040;-56
2022/09/04 08:45:59;;;;;;;21.13;19.23;;;24.80;1.00;;;;;;5019361;28;20029;-54
2022/09/04 08:48:53;;;;;;;19.58;17.83;;;24.80;1.00;;;;;;5037648;28;20075;-53
2022/09/04 08:51:40;;;;;;;22.58;20.38;;;24.80;1.00;;;;;;5021495;28;20041;-53
2022/09/04 08:54:29;;;;;;;21.75;19.52;;;24.90;1.00;;;;;;5033736;28;20109;-54
2022/09/04 08:57:34;;;;;;;20.95;18.85;;;25.00;1.00;;;;;;5037462;28;20107;-54
2022/09/04 09:00:11;;;;;;;20.90;19.05;;;25.00;1.00;;;;;;5032125;28;20025;-53
2022/09/04 09:02:55;;;;;;;17.75;16.17;;;25.00;1.00;;;;;;5042795;28;20052;-56
2022/09/04 09:05:42;;;;;;;22.00;19.77;;;25.10;1.00;;;;;;5022080;28;20052;-56
2022/09/04 09:08:38;;;;;;;23.58;21.27;;;25.10;1.00;;;;;;5032713;28;20033;-58
2022/09/04 09:11:39;;;;;;;23.33;21.17;;;25.20;1.00;;;;;;5033096;28;20045;-58
2022/09/04 09:14:20;;;;;;;23.33;20.95;;;25.20;1.00;;;;;;5023567;28;20068;-56
2022/09/04 09:17:01;;;;;;;27.30;24.55;;;25.30;1.00;;;;;;5040912;28;20493;-56
2022/09/04 09:19:32;;;;;;;22.77;20.67;;;25.40;1.00;;;;;;5033112;28;20495;-55
2022/09/04 09:22:18;;;;;;;22.23;20.13;;;25.40;1.00;;;;;;5036972;28;20032;-55
2022/09/04 09:25:19;;;;;;;22.15;20.00;;;25.50;1.00;;;;;;5036822;28;20180;-57
2022/09/04 09:28:19;;;;;;;21.70;19.65;;;25.60;1.00;;;;;;5035737;28;20083;-57
2022/09/04 09:31:04;;;;;;;17.48;15.68;;;25.60;1.00;;;;;;5029607;28;20100;-57
2022/09/04 09:34:10;;;;;;;15.90;14.40;;;25.70;1.00;;;;;;5036704;28;20040;-56
2022/09/04 09:37:17;;;;;;;17.80;16.13;;;25.80;1.00;;;;;;5032337;28;20042;-57
2022/09/04 09:40:20;;;;;;;13.55;12.40;;;25.90;1.00;;;;;;5015215;28;20037;-57
2022/09/04 09:42:58;;;;;;;17.25;15.48;;;25.90;1.00;;;;;;5022437;28;20025;-57
2022/09/04 09:45:45;;;;;;;16.60;15.13;;;26.00;1.00;;;;;;5032501;28;20061;-57
2022/09/04 09:48:48;;;;;;;21.70;19.50;;;26.00;1.00;;;;;;5031878;28;20147;-57
2022/09/04 09:51:30;;;;;;;18.10;16.35;;;26.00;1.00;;;;;;5031114;28;20040;-56
2022/09/04 09:54:18;;;;;;;16.58;13.63;;;26.20;1.00;;;;;;5026824;28;20041;-57
2022/09/04 09:57:35;;;;;;;18.25;16.77;;;26.50;1.00;;;;;;5033290;28;20030;-55
2022/09/04 10:03:38;;;;;;;20.95;18.58;;;26.80;1.00;;;;;;5007286;28;20123;-55
2022/09/04 10:06:31;;;;;;;19.48;17.75;;;26.80;1.00;;;;;;5031278;28;20029;-56
2022/09/04 10:09:15;;;;;;;14.55;13.30;;;26.90;1.00;;;;;;5032510;28;20022;-56
2022/09/04 10:12:07;;;;;;;17.57;16.17;;;26.90;1.00;;;;;;5032354;28;20037;-56
2022/09/04 10:14:48;;;;;;;18.92;17.17;;;27.00;1.00;;;;;;5035461;28;20276;-57
2022/09/04 10:17:35;;;;;;;21.45;19.45;;;27.00;1.00;;;;;;5031248;28;20041;-56
2022/09/04 10:20:34;;;;;;;17.15;15.52;;;27.00;1.00;;;;;;5032087;28;20399;-58
2022/09/04 10:23:20;;;;;;;20.85;18.90;;;26.90;1.00;;;;;;5040218;28;20048;-54
2022/09/04 10:26:00;;;;;;;18.00;16.25;;;26.90;1.00;;;;;;5032053;28;20017;-57
2022/09/04 10:28:54;;;;;;;15.93;14.43;;;27.00;1.00;;;;;;5030835;28;20025;-52
2022/09/04 10:31:25;;;;;;;19.88;17.85;;;27.00;1.00;;;;;;5031904;28;20034;-55
2022/09/04 10:34:00;;;;;;;21.45;19.52;;;27.10;1.00;;;;;;5030801;28;20033;-57
2022/09/04 10:36:35;;;;;;;15.48;14.07;;;27.20;1.00;;;;;;5025721;28;20519;-56
2022/09/04 10:42:36;;;;;;;16.65;15.27;;;27.10;1.00;;;;;;5031051;28;20076;-56
2022/09/04 10:45:21;;;;;;;17.80;16.10;;;27.00;1.00;;;;;;5031897;28;20191;-57
2022/09/04 10:48:21;;;;;;;16.40;15.00;;;27.00;1.00;;;;;;5021848;28;20025;-55
2022/09/04 10:51:07;;;;;;;17.20;15.52;;;27.00;1.00;;;;;;5031685;28;20040;-56
2022/09/04 10:54:05;;;;;;;17.65;16.15;;;27.10;1.00;;;;;;5040410;28;20047;-57
2022/09/04 10:56:52;;;;;;;20.35;18.52;;;27.10;1.00;;;;;;5021345;28;20026;-57
2022/09/04 11:00:00;;;;;;;22.50;20.17;;;27.20;1.00;;;;;;5030145;28;20442;-57
2022/09/04 11:03:06;;;;;;;19.30;17.27;;;27.10;1.00;;;;;;5033771;28;20407;-56
2022/09/04 11:05:44;;;;;;;19.52;17.83;;;27.10;1.00;;;;;;5031460;28;20483;-56
2022/09/04 11:08:34;;;;;;;17.85;16.40;;;27.00;1.00;;;;;;5030803;28;20079;-55
2022/09/04 11:11:28;;;;;;;19.70;18.10;;;27.20;1.00;;;;;;5030194;28;20501;-57
2022/09/04 11:14:08;;;;;;;18.13;16.63;;;27.20;1.00;;;;;;5030902;28;20144;-56
2022/09/04 11:16:46;;;;;;;16.77;15.02;;;27.40;1.00;;;;;;5031248;28;20620;-55
2022/09/04 11:19:31;;;;;;;14.68;13.35;;;27.50;1.00;;;;;;5028209;28;20033;-57
2022/09/04 11:22:40;;;;;;;15.63;14.32;;;27.90;1.00;;;;;;5031669;28;20025;-57
2022/09/04 11:25:50;;;;;;;17.42;15.93;;;28.10;1.00;;;;;;5033359;28;20099;-56
2022/09/04 11:28:43;;;;;;;16.35;14.98;;;28.00;1.00;;;;;;5038504;28;20017;-54
2022/09/04 11:31:38;;;;;;;16.33;14.75;;;27.90;1.00;;;;;;5031108;28;20395;-55
2022/09/04 11:34:31;;;;;;;19.67;17.80;;;27.80;1.00;;;;;;5037537;28;20094;-57
2022/09/04 11:37:34;;;;;;;16.55;15.10;;;27.70;1.00;;;;;;5030627;28;20115;-53
2022/09/04 11:40:12;;;;;;;13.13;11.95;;;27.80;1.00;;;;;;5037362;28;20039;-52
2022/09/04 11:43:08;;;;;;;15.45;14.20;;;28.00;1.00;;;;;;5034867;28;20082;-57
2022/09/04 11:46:01;;;;;;;14.30;13.18;;;28.10;1.00;;;;;;5033434;28;20056;-56
2022/09/04 11:48:45;;;;;;;17.05;14.68;;;28.00;1.00;;;;;;5030353;28;20028;-57
2022/09/04 11:51:40;;;;;;;14.60;13.40;;;27.90;1.00;;;;;;5034475;28;20391;-55
2022/09/04 11:54:30;;;;;;;13.48;12.43;;;28.20;1.00;;;;;;5043519;28;20017;-56
2022/09/04 11:57:47;;;;;;;11.50;10.48;;;28.50;1.00;;;;;;5031030;28;20025;-56
2022/09/04 12:00:15;;;;;;;13.25;11.95;;;28.90;1.00;;;;;;5026385;28;20360;-57
2022/09/04 12:02:50;;;;;;;11.98;10.88;;;28.80;1.00;;;;;;5032533;28;20032;-54
2022/09/04 12:05:50;;;;;;;13.13;11.93;;;28.90;1.00;;;;;;5032567;28;20034;-55
2022/09/04 12:08:47;;;;;;;14.38;13.20;;;29.20;1.00;;;;;;5021130;28;20042;-53
2022/09/04 12:11:34;;;;;;;15.57;14.07;;;29.50;1.00;;;;;;5034293;28;20506;-58
2022/09/04 12:14:19;;;;;;;11.80;10.80;;;29.60;1.00;;;;;;5035377;28;20395;-57
2022/09/04 12:17:16;;;;;;;12.23;11.23;;;30.20;1.00;;;;;;5023167;28;20359;-55
2022/09/04 12:19:50;;;;;;;10.23;9.10;;;33.50;1.00;;;;;;5032562;28;20371;-57
2022/09/04 12:22:39;;;;;;;11.18;10.20;;;36.50;1.00;;;;;;5033497;28;20025;-57
2022/09/04 12:25:50;;;;;;;12.75;11.52;;;33.70;1.00;;;;;;5021316;28;20096;-56
2022/09/04 12:28:36;;;;;;;12.30;11.23;;;33.60;1.00;;;;;;5037356;28;20390;-56
2022/09/04 12:31:41;;;;;;;10.05;9.05;;;33.70;1.00;;;;;;5034232;28;20041;-56
2022/09/04 12:34:24;;;;;;;;;;;34.30;1.00;;;;;;5038284;28;20165;-54
2022/09/04 12:37:22;;;;;;;11.25;10.23;;;34.10;1.00;;;;;;5033802;28;19955;-56
2022/09/04 12:39:57;;;;;;;13.88;12.90;;;34.90;1.00;;;;;;5029042;28;20390;-57
2022/09/04 12:42:50;;;;;;;13.77;11.40;;;34.40;1.00;;;;;;5032627;28;20439;-55
2022/09/04 12:45:27;;;;;;;10.95;9.95;;;36.00;1.00;;;;;;5038504;28;20033;-56
2022/09/04 12:48:09;;;;;;;11.18;10.27;;;38.20;1.00;;;;;;5033009;28;20028;-53
2022/09/04 12:50:38;;;;;;;11.10;10.20;;;39.80;1.00;;;;;;5033757;28;20348;-58
2022/09/04 12:53:30;;;;;;;10.63;9.93;;;41.50;1.00;;;;;;5032843;28;20511;-58
2022/09/04 12:56:27;;;;;;;9.55;8.77;;;41.90;1.00;;;;;;5033440;28;20021;-58
2022/09/04 12:58:55;;;;;;;10.23;9.57;;;41.80;1.00;;;;;;5025302;28;20072;-57
2022/09/04 13:01:41;;;;;;;11.93;11.07;;;41.40;1.00;;;;;;5033510;28;20025;-58
2022/09/04 13:04:26;;;;;;;9.88;9.18;;;40.80;1.00;;;;;;5030615;28;20119;-57
2022/09/04 13:07:36;;;;;;;12.02;11.32;;;40.40;1.00;;;;;;5029289;28;20037;-58
2022/09/04 13:10:10;;;;;;;10.25;9.63;;;41.30;1.00;;;;;;5024464;28;20033;-58
2022/09/04 13:12:54;;;;;;;10.95;10.10;;;43.90;1.00;;;;;;5032184;28;20124;-57
2022/09/04 13:15:27;;;;;;;8.82;8.10;;;45.00;1.00;;;;;;5031991;28;20037;-58
2022/09/04 13:17:57;;;;;;;8.73;8.10;;;45.70;1.00;;;;;;5020496;28;20033;-56
2022/09/04 13:20:41;;;;;;;12.55;11.68;;;45.40;1.00;;;;;;5038922;28;20026;-58
2022/09/04 13:23:34;;;;;;;10.48;9.77;;;45.60;1.00;;;;;;5019934;28;20041;-58
2022/09/04 13:26:23;;;;;;;10.77;9.93;;;45.60;1.00;;;;;;5032456;28;20167;-58
2022/09/04 13:29:03;;;;;;;9.73;9.13;;;46.50;1.00;;;;;;5042619;28;20115;-58
2022/09/04 13:31:38;;;;;;;9.30;8.70;;;45.20;1.00;;;;;;5019025;28;20047;-58
2022/09/04 13:34:29;;;;;;;9.27;8.55;;;46.00;1.00;;;;;;5041455;28;20032;-58
2022/09/04 13:37:19;;;;;;;9.15;8.27;;;45.70;1.00;;;;;;5032956;28;20022;-58
2022/09/04 13:40:02;;;;;;;9.60;8.80;;;46.20;1.00;;;;;;5019841;28;20104;-58
2022/09/04 13:42:48;;;;;;;10.52;9.90;;;46.40;1.00;;;;;;5024861;28;20026;-58
2022/09/04 13:45:22;;;;;;;9.57;8.98;;;44.80;1.00;;;;;;5048001;28;20025;-58
2022/09/04 13:47:51;;;;;;;8.10;7.60;;;44.70;1.00;;;;;;5030282;28;20574;-58
2022/09/04 13:50:18;;;;;;;7.22;6.78;;;43.60;1.00;;;;;;5032615;28;20033;-58
2022/09/04 13:53:10;;;;;;;8.27;7.70;;;43.20;1.00;;;;;;5032801;28;20042;-57
2022/09/04 13:55:58;;;;;;;7.50;6.88;;;41.60;1.00;;;;;;5021718;28;20112;-58
2022/09/04 13:58:37;;;;;;;8.80;8.07;;;42.10;1.00;;;;;;5030564;28;20449;-58
2022/09/04 14:01:08;;;;;;;7.70;7.20;;;42.00;1.00;;;;;;5032341;28;20033;-58
2022/09/04 14:03:45;;;;;;;8.10;7.53;;;41.60;1.00;;;;;;5031503;28;20180;-56
2022/09/04 14:06:31;;;;;;;7.55;7.05;;;41.10;1.00;;;;;;5030744;28;20075;-57
2022/09/04 14:09:02;;;;;;;8.60;8.00;;;39.90;1.00;;;;;;5029636;28;20112;-58
2022/09/04 14:11:56;;;;;;;8.80;8.23;;;39.40;1.00;;;;;;5031288;28;20120;-58
2022/09/04 14:14:39;;;;;;;7.45;7.05;;;39.10;1.00;;;;;;5022468;28;20030;-59
2022/09/04 14:17:06;;;;;;;;;;;39.70;1.00;;;;;;5032917;28;20437;-59
2022/09/04 14:19:46;;;;;;;7.95;7.32;;;41.00;1.00;;;;;;5030002;28;19919;-58
2022/09/04 14:22:23;;;;;;;7.47;6.80;;;41.60;1.00;;;;;;5030543;28;20390;-58
2022/09/04 14:25:06;;;;;;;7.75;7.28;;;40.70;1.00;;;;;;5031348;28;20476;-58
2022/09/04 14:27:54;;;;;;;7.30;6.88;;;39.40;1.00;;;;;;5030844;28;20025;-58
2022/09/04 14:30:21;;;;;;;6.95;6.55;;;38.50;1.00;;;;;;5032880;28;20117;-57
2022/09/04 14:33:05;;;;;;;7.22;6.68;;;38.40;1.00;;;;;;5031803;28;20474;-55
2022/09/04 14:35:57;;;;;;;6.28;5.95;;;38.70;1.00;;;;;;5030115;28;20029;-57
2022/09/04 14:38:42;;;;;;;7.07;6.57;;;38.60;1.00;;;;;;5031445;28;20079;-56
2022/09/04 14:41:14;;;;;;;6.43;5.93;;;39.90;1.00;;;;;;5042868;28;20036;-56
2022/09/04 14:44:11;;;;;;;6.00;5.70;;;40.80;1.00;;;;;;5033322;28;20486;-55
2022/09/04 14:46:49;;;;;;;6.60;6.18;;;41.10;1.00;;;;;;5037719;28;20021;-57
2022/09/04 14:49:20;;;;;;;6.78;6.15;;;41.30;1.00;;;;;;5030749;28;20444;-57
2022/09/04 14:51:49;;;;;;;6.18;5.60;;;41.60;1.00;;;;;;5031695;28;20040;-57
2022/09/04 14:54:22;;;;;;;5.75;5.40;;;42.70;1.00;;;;;;5037378;28;20029;-57
2022/09/04 14:56:51;;;;;;;5.35;4.95;;;42.70;1.00;;;;;;5034423;28;20108;-57